createdAt,value
2022-10-28T00:01:13.884Z,8.40
2022-10-28T00:03:43.440Z,10.25
2022-10-28T00:06:19.208Z,8.68
2022-10-28T00:08:46.933Z,9.43
2022-10-28T00:11:26.622Z,8.43
2022-10-28T00:13:55.389Z,8.30
2022-10-28T00:16:26.132Z,9.10
2022-10-28T00:18:54.396Z,9.73
2022-10-28T00:21:27.960Z,9.05
2022-10-28T00:23:55.944Z,9.07
2022-10-28T00:26:25.758Z,8.77
2022-10-28T00:29:07.648Z,8.60
2022-10-28T00:31:36.398Z,8.77
2022-10-28T00:34:07.416Z,8.77
2022-10-28T00:36:37.559Z,8.95
2022-10-28T00:39:19.173Z,7.35
2022-10-28T00:42:07.314Z,8.15
2022-10-28T00:44:53.672Z,8.07
2022-10-28T00:47:40.069Z,9.23
2022-10-28T00:50:13.392Z,7.93
2022-10-28T00:52:42.050Z,7.88
2022-10-28T00:55:10.494Z,7.00
2022-10-28T00:57:39.067Z,6.70
2022-10-28T01:00:08.180Z,7.80
2022-10-28T01:02:43.531Z,7.10
2022-10-28T01:05:13.836Z,6.82
2022-10-28T01:07:41.688Z,6.57
2022-10-28T01:10:10.089Z,5.60
2022-10-28T01:12:53.311Z,7.30
2022-10-28T01:15:55.999Z,6.93
2022-10-28T01:18:29.675Z,6.28
2022-10-28T01:21:15.072Z,6.10
2022-10-28T01:23:54.329Z,7.10
2022-10-28T01:26:56.853Z,5.72
2022-10-28T01:29:30.498Z,6.07
2022-10-28T01:32:31.240Z,6.88
2022-10-28T01:35:28.185Z,5.82
2022-10-28T01:37:55.754Z,5.20
2022-10-28T01:40:36.309Z,5.25
2022-10-28T01:43:13.602Z,5.70
2022-10-28T01:45:56.521Z,5.95
2022-10-28T01:48:46.653Z,6.00
2022-10-28T01:51:22.917Z,5.80
2022-10-28T01:53:53.980Z,6.55
2022-10-28T01:56:26.945Z,5.82
2022-10-28T01:58:59.370Z,5.60
2022-10-28T02:01:29.381Z,4.82
2022-10-28T02:03:59.129Z,6.25
2022-10-28T02:06:29.988Z,4.95
2022-10-28T02:09:19.727Z,6.50
2022-10-28T02:12:13.135Z,5.45
2022-10-28T02:15:04.121Z,5.72
2022-10-28T02:17:56.820Z,5.28
2022-10-28T02:21:03.264Z,5.60
2022-10-28T02:23:44.799Z,4.82
2022-10-28T02:26:40.879Z,11.75
2022-10-28T02:29:15.200Z,5.47
2022-10-28T02:31:49.709Z,5.78
2022-10-28T02:34:21.893Z,6.35
2022-10-28T02:39:26.213Z,5.20
2022-10-28T02:41:59.237Z,4.93
2022-10-28T02:44:42.234Z,5.72
2022-10-28T02:47:14.278Z,6.03
2022-10-28T02:49:45.996Z,4.97
2022-10-28T02:52:16.212Z,5.03
2022-10-28T02:54:53.453Z,4.53
2022-10-28T02:57:25.125Z,6.28
2022-10-28T02:59:58.840Z,4.35
2022-10-28T03:02:26.653Z,4.70
2022-10-28T03:04:54.278Z,4.93
2022-10-28T03:07:21.780Z,6.05
2022-10-28T03:09:49.216Z,6.13
2022-10-28T03:12:19.722Z,4.80
2022-10-28T03:14:48.404Z,5.05
2022-10-28T03:17:16.067Z,4.32
2022-10-28T03:19:43.537Z,4.20
2022-10-28T03:22:11.085Z,4.88
2022-10-28T03:24:38.429Z,4.88
2022-10-28T03:27:06.610Z,4.53
2022-10-28T03:29:34.266Z,4.57
2022-10-28T03:32:01.630Z,5.35
2022-10-28T03:34:29.157Z,5.32
2022-10-28T03:36:56.680Z,5.25
2022-10-28T03:39:23.999Z,5.97
2022-10-28T03:41:51.311Z,5.15
2022-10-28T03:44:18.901Z,5.68
2022-10-28T03:46:46.139Z,5.90
2022-10-28T03:49:13.493Z,6.63
2022-10-28T03:51:40.899Z,6.57
2022-10-28T03:54:08.237Z,7.15
2022-10-28T03:56:35.704Z,7.35
2022-10-28T03:59:03.118Z,6.63
2022-10-28T04:01:30.719Z,6.85
2022-10-28T04:03:58.140Z,7.75
2022-10-28T04:06:25.613Z,7.45
2022-10-28T04:08:52.971Z,7.70
2022-10-28T04:11:20.326Z,8.68
2022-10-28T04:13:47.602Z,7.03
2022-10-28T04:16:15.082Z,7.07
2022-10-28T04:18:42.637Z,6.80
2022-10-28T04:21:09.952Z,7.07
2022-10-28T04:23:37.482Z,6.60
2022-10-28T04:26:06.024Z,6.45
2022-10-28T04:28:33.536Z,6.97
2022-10-28T04:31:02.776Z,6.38
2022-10-28T04:33:30.124Z,6.47
2022-10-28T04:35:57.529Z,7.38
2022-10-28T04:41:00.418Z,7.60
2022-10-28T04:43:27.936Z,7.97
2022-10-28T04:45:55.273Z,6.97
2022-10-28T04:48:22.832Z,7.13
2022-10-28T04:50:51.140Z,6.57
2022-10-28T04:53:18.603Z,7.30
2022-10-28T04:55:47.375Z,8.85
2022-10-28T04:58:14.640Z,9.50
2022-10-28T05:00:42.070Z,8.95
2022-10-28T05:03:09.321Z,7.03
2022-10-28T05:05:36.826Z,6.57
2022-10-28T05:08:04.109Z,7.25
2022-10-28T05:10:32.117Z,7.25
2022-10-28T05:12:59.735Z,7.43
2022-10-28T05:15:27.339Z,5.72
2022-10-28T05:17:55.260Z,6.53
2022-10-28T05:20:31.599Z,6.53
2022-10-28T05:22:59.239Z,5.63
2022-10-28T05:25:28.021Z,7.05
2022-10-28T05:28:00.174Z,6.38
2022-10-28T05:30:28.749Z,7.60
2022-10-28T05:33:01.690Z,6.85
2022-10-28T05:35:30.469Z,6.30
2022-10-28T05:37:57.927Z,7.75
2022-10-28T05:40:25.652Z,8.18
2022-10-28T05:42:53.222Z,8.13
2022-10-28T05:45:21.954Z,8.40
2022-10-28T05:47:49.551Z,8.40
2022-10-28T05:50:19.449Z,8.27
2022-10-28T05:52:51.411Z,6.90
2022-10-28T05:55:19.994Z,8.35
2022-10-28T05:57:49.148Z,7.95
2022-10-28T06:00:18.615Z,8.25
2022-10-28T06:02:46.161Z,10.05
2022-10-28T06:05:15.475Z,9.65
2022-10-28T06:07:43.522Z,9.30
2022-10-28T06:10:12.025Z,8.93
2022-10-28T06:12:38.015Z,8.38
2022-10-28T06:15:05.819Z,8.35
2022-10-28T06:17:33.107Z,8.88
2022-10-28T06:20:03.362Z,8.50
2022-10-28T06:22:33.340Z,7.28
2022-10-28T06:25:01.795Z,8.93
2022-10-28T06:27:28.993Z,8.20
2022-10-28T06:29:56.276Z,9.10
2022-10-28T06:32:23.712Z,9.10
2022-10-28T06:34:51.201Z,9.27
2022-10-28T06:37:18.446Z,8.90
2022-10-28T06:39:49.917Z,8.68
2022-10-28T06:42:18.406Z,9.45
2022-10-28T06:44:46.188Z,9.93
2022-10-28T06:47:14.944Z,8.68
2022-10-28T06:49:42.172Z,10.43
2022-10-28T06:52:09.620Z,9.00
2022-10-28T06:54:36.711Z,8.48
2022-10-28T06:57:04.208Z,9.30
2022-10-28T06:59:31.717Z,9.60
2022-10-28T07:02:01.275Z,10.15
2022-10-28T07:04:28.602Z,10.50
2022-10-28T07:06:56.591Z,9.15
2022-10-28T07:09:24.453Z,8.75
2022-10-28T07:11:54.991Z,7.43
2022-10-28T07:14:22.873Z,8.25
2022-10-28T07:16:50.144Z,7.60
2022-10-28T07:19:21.669Z,8.48
2022-10-28T07:21:49.890Z,7.03
2022-10-28T07:24:17.126Z,7.40
2022-10-28T07:26:48.453Z,7.70
2022-10-28T07:29:16.620Z,8.05
2022-10-28T07:31:44.060Z,9.60
2022-10-28T07:34:11.412Z,10.70
2022-10-28T07:36:40.236Z,10.40
2022-10-28T07:39:07.959Z,10.68
2022-10-28T07:41:37.861Z,9.30
2022-10-28T07:44:05.078Z,9.07
2022-10-28T07:46:32.451Z,10.23
2022-10-28T07:49:00.025Z,9.57
2022-10-28T07:51:27.779Z,10.00
2022-10-28T07:53:57.808Z,9.77
2022-10-28T07:56:26.029Z,11.57
2022-10-28T07:58:53.276Z,10.40
2022-10-28T08:01:22.075Z,9.98
2022-10-28T08:03:51.603Z,11.05
2022-10-28T08:06:20.842Z,11.02
2022-10-28T08:08:53.592Z,10.35
2022-10-28T08:11:24.628Z,10.75
2022-10-28T08:13:53.288Z,10.20
2022-10-28T08:16:21.019Z,9.77
2022-10-28T08:18:48.451Z,8.82
2022-10-28T08:21:16.308Z,9.80
2022-10-28T08:23:47.085Z,10.70
2022-10-28T08:26:16.442Z,10.52
2022-10-28T08:28:44.177Z,10.70
2022-10-28T08:31:13.039Z,11.88
2022-10-28T08:33:44.630Z,9.98
2022-10-28T08:36:21.511Z,10.43
2022-10-28T08:38:48.912Z,9.68
2022-10-28T08:41:33.872Z,10.32
2022-10-28T08:44:22.432Z,8.88
2022-10-28T08:47:08.459Z,9.32
2022-10-28T08:49:42.450Z,9.48
2022-10-28T08:52:34.305Z,8.90
2022-10-28T08:55:04.724Z,8.80
2022-10-28T08:58:02.787Z,7.57
2022-10-28T09:00:32.872Z,7.85
2022-10-28T09:03:12.015Z,8.45
2022-10-28T09:05:41.344Z,6.53
2022-10-28T09:08:25.107Z,4.60
2022-10-28T09:11:29.548Z,5.18
2022-10-28T09:14:27.876Z,7.63
2022-10-28T09:17:20.460Z,5.35
2022-10-28T09:20:04.656Z,5.20
2022-10-28T09:22:43.105Z,5.00
2022-10-28T09:25:37.209Z,5.28
2022-10-28T09:28:19.847Z,4.25
2022-10-28T09:30:48.710Z,4.15
2022-10-28T09:33:38.699Z,3.90
2022-10-28T09:36:15.720Z,4.80
2022-10-28T09:38:44.962Z,4.80
2022-10-28T09:41:25.547Z,4.63
2022-10-28T09:44:20.505Z,3.88
2022-10-28T09:46:53.153Z,3.60
2022-10-28T09:49:26.612Z,3.05
2022-10-28T09:52:19.571Z,3.95
2022-10-28T09:54:53.927Z,4.50
2022-10-28T09:57:24.785Z,3.25
2022-10-28T09:59:53.862Z,3.30
2022-10-28T10:02:30.811Z,4.22
2022-10-28T10:05:06.038Z,3.63
2022-10-28T10:07:41.230Z,3.53
2022-10-28T10:10:27.759Z,3.28
2022-10-28T10:13:03.800Z,3.30
2022-10-28T10:15:48.942Z,7.13
2022-10-28T10:18:23.972Z,3.13
2022-10-28T10:20:58.866Z,3.00
2022-10-28T10:26:14.902Z,3.38
2022-10-28T10:28:44.709Z,3.40
2022-10-28T10:31:25.267Z,2.83
2022-10-28T10:33:56.121Z,3.53
2022-10-28T10:36:29.235Z,3.20
2022-10-28T10:38:59.138Z,2.88
2022-10-28T10:41:44.319Z,3.10
2022-10-28T10:44:20.911Z,3.38
2022-10-28T10:47:12.830Z,3.20
2022-10-28T10:49:43.016Z,3.22
2022-10-28T10:52:20.623Z,2.78
2022-10-28T10:55:05.100Z,3.63
2022-10-28T10:57:34.212Z,5.00
2022-10-28T11:00:01.784Z,3.58
2022-10-28T11:02:35.182Z,3.60
2022-10-28T11:05:06.463Z,3.78
2022-10-28T11:07:34.118Z,3.58
2022-10-28T11:10:02.145Z,3.22
2022-10-28T11:12:35.685Z,3.42
2022-10-28T11:15:17.179Z,3.33
2022-10-28T11:18:05.370Z,3.30
2022-10-28T11:20:47.272Z,3.42
2022-10-28T11:23:34.458Z,3.22
2022-10-28T11:26:08.360Z,3.00
2022-10-28T11:29:11.272Z,3.22
2022-10-28T11:31:52.717Z,3.80
2022-10-28T11:34:49.544Z,3.47
2022-10-28T11:37:54.313Z,3.38
2022-10-28T11:40:32.644Z,3.60
2022-10-28T11:43:21.350Z,6.88
2022-10-28T11:46:10.620Z,3.92
2022-10-28T11:49:00.470Z,3.63
2022-10-28T11:51:53.368Z,3.13
2022-10-28T11:54:33.279Z,3.20
2022-10-28T11:57:08.899Z,3.30
2022-10-28T12:00:03.614Z,3.00
2022-10-28T12:03:04.241Z,3.20
2022-10-28T12:06:03.983Z,4.40
2022-10-28T12:08:54.034Z,3.50
2022-10-28T12:11:50.945Z,3.93
2022-10-28T12:14:23.642Z,3.90
2022-10-28T12:17:13.277Z,3.40
2022-10-28T12:20:01.415Z,3.60
2022-10-28T12:22:51.364Z,3.88
2022-10-28T12:25:41.378Z,3.40
2022-10-28T12:28:20.250Z,4.00
2022-10-28T12:30:52.597Z,3.63
2022-10-28T12:33:27.577Z,3.40
2022-10-28T12:36:08.086Z,4.50
2022-10-28T12:38:53.998Z,3.80
2022-10-28T12:41:43.670Z,3.80
2022-10-28T12:44:25.871Z,3.80
2022-10-28T12:47:17.343Z,3.75
2022-10-28T12:49:55.232Z,3.15
2022-10-28T12:52:36.198Z,3.97
2022-10-28T12:55:42.142Z,4.15
2022-10-28T12:58:17.695Z,3.78
2022-10-28T13:00:50.413Z,4.28
2022-10-28T13:03:18.946Z,4.93
2022-10-28T13:06:17.020Z,3.95
2022-10-28T13:09:03.122Z,4.82
2022-10-28T13:12:02.275Z,5.10
2022-10-28T13:15:15.832Z,4.00
2022-10-28T13:18:08.823Z,3.88
2022-10-28T13:21:22.983Z,3.90
2022-10-28T13:24:31.356Z,4.30
2022-10-28T13:27:05.351Z,4.53
2022-10-28T13:29:36.241Z,3.50
2022-10-28T13:32:09.267Z,4.07
2022-10-28T13:34:43.379Z,9.23
2022-10-28T13:37:24.848Z,7.50
2022-10-28T13:39:57.285Z,7.40
2022-10-28T13:42:26.035Z,5.82
2022-10-28T13:44:54.520Z,4.85
2022-10-28T13:47:25.721Z,4.50
2022-10-28T13:50:12.930Z,4.22
2022-10-28T13:52:49.044Z,3.83
2022-10-28T13:55:42.101Z,4.45
2022-10-28T13:58:24.104Z,4.80
2022-10-28T14:00:53.485Z,5.60
2022-10-28T14:03:29.811Z,4.38
2022-10-28T14:06:01.031Z,4.22
2022-10-28T14:08:34.382Z,6.53
2022-10-28T14:11:12.086Z,4.80
2022-10-28T14:14:04.516Z,4.55
2022-10-28T14:16:39.299Z,4.18
2022-10-28T14:19:09.735Z,4.25
2022-10-28T14:22:06.097Z,4.30
2022-10-28T14:24:42.035Z,4.70
2022-10-28T14:27:09.413Z,4.38
2022-10-28T14:29:45.104Z,4.30
2022-10-28T14:32:31.210Z,4.70
2022-10-28T14:35:26.114Z,4.90
2022-10-28T14:38:27.196Z,4.32
2022-10-28T14:41:03.636Z,4.17
2022-10-28T14:43:33.933Z,4.60
2022-10-28T14:46:26.188Z,5.38
2022-10-28T14:48:59.285Z,4.50
2022-10-28T14:51:42.597Z,4.88
2022-10-28T14:54:16.254Z,4.28
2022-10-28T14:56:44.513Z,4.40
2022-10-28T14:59:36.911Z,4.53
2022-10-28T15:02:10.745Z,10.38
2022-10-28T15:04:40.816Z,4.38
2022-10-28T15:07:16.344Z,4.88
2022-10-28T15:09:45.444Z,4.78
2022-10-28T15:12:17.033Z,4.78
2022-10-28T15:17:19.804Z,5.22
2022-10-28T15:19:49.540Z,5.30
2022-10-28T15:22:23.073Z,5.13
2022-10-28T15:24:55.327Z,18.73
2022-10-28T15:27:23.517Z,10.02
2022-10-28T15:29:51.452Z,10.93
2022-10-28T15:32:21.721Z,6.78
2022-10-28T15:34:49.495Z,6.10
2022-10-28T15:37:22.452Z,7.03
2022-10-28T15:39:52.406Z,30.23
2022-10-28T15:43:01.707Z,13.18
2022-10-28T15:45:31.995Z,10.27
2022-10-28T15:48:00.899Z,7.13
2022-10-28T15:50:31.676Z,6.38
2022-10-28T15:53:11.380Z,5.28
2022-10-28T15:56:06.798Z,56.00
2022-10-28T15:58:35.842Z,25.58
2022-10-28T16:01:03.871Z,27.95
2022-10-28T16:03:43.818Z,28.88
2022-10-28T16:06:39.016Z,11.50
2022-10-28T16:09:44.144Z,31.33
2022-10-28T16:12:17.883Z,14.50
2022-10-28T16:14:55.591Z,6.95
2022-10-28T16:17:29.490Z,6.00
2022-10-28T16:20:03.456Z,20.00
2022-10-28T16:22:34.920Z,11.68
2022-10-28T16:25:02.271Z,6.47
2022-10-28T16:27:32.401Z,9.95
2022-10-28T16:30:00.404Z,9.38
2022-10-28T16:32:49.167Z,7.35
2022-10-28T16:35:18.065Z,6.38
2022-10-28T16:37:49.372Z,7.13
2022-10-28T16:40:51.116Z,5.95
2022-10-28T16:43:06.043Z,7.25
2022-10-28T16:45:33.496Z,7.03
2022-10-28T16:48:00.737Z,7.15
2022-10-28T16:50:28.132Z,7.30
2022-10-28T16:52:56.773Z,14.18
2022-10-28T16:55:24.076Z,6.45
2022-10-28T16:57:51.460Z,7.68
2022-10-28T17:00:19.384Z,7.35
2022-10-28T17:02:50.913Z,7.55
2022-10-28T17:05:24.562Z,6.47
2022-10-28T17:07:56.219Z,6.93
2022-10-28T17:12:51.853Z,9.90
2022-10-28T17:15:19.480Z,8.10
2022-10-28T17:17:50.774Z,7.75
2022-10-28T17:20:19.391Z,15.23
2022-10-28T17:22:46.808Z,11.65
2022-10-28T17:25:14.264Z,10.15
2022-10-28T17:27:42.306Z,8.05
2022-10-28T17:30:10.369Z,7.53
2022-10-28T17:32:37.787Z,8.57
2022-10-28T17:35:05.727Z,8.50
2022-10-28T17:37:33.823Z,12.43
2022-10-28T17:40:01.444Z,7.82
2022-10-28T17:42:29.257Z,29.83
2022-10-28T17:44:58.634Z,11.07
2022-10-28T17:47:25.852Z,9.85
2022-10-28T17:49:53.319Z,130.48
2022-10-28T17:52:21.606Z,31.17
2022-10-28T17:54:48.869Z,309.75
2022-10-28T17:57:16.310Z,100.55
2022-10-28T17:59:43.857Z,81.68
2022-10-28T18:02:15.051Z,136.50
2022-10-28T18:04:42.622Z,53.53
2022-10-28T18:07:10.000Z,51.65
2022-10-28T18:09:37.401Z,156.63
2022-10-28T18:12:06.777Z,47.75
2022-10-28T18:14:34.184Z,63.83
2022-10-28T18:17:01.698Z,33.30
2022-10-28T18:19:29.395Z,21.23
2022-10-28T18:21:56.800Z,41.05
2022-10-28T18:24:26.027Z,165.27
2022-10-28T18:26:55.078Z,583.58
2022-10-28T18:29:22.488Z,181.43
2022-10-28T18:31:49.699Z,91.68
2022-10-28T18:34:17.167Z,38.83
2022-10-28T18:36:44.794Z,99.15
2022-10-28T18:39:12.755Z,48.28
2022-10-28T18:41:42.819Z,62.80
2022-10-28T18:44:13.255Z,142.05
2022-10-28T18:46:41.507Z,184.20
2022-10-28T18:49:08.784Z,380.17
2022-10-28T18:51:36.500Z,116.50
2022-10-28T18:54:05.262Z,39.00
2022-10-28T18:56:34.412Z,159.23
2022-10-28T18:59:04.139Z,165.88
2022-10-28T19:01:32.578Z,28.45
2022-10-28T19:04:02.743Z,33.58
2022-10-28T19:06:33.313Z,120.80
2022-10-28T19:09:03.008Z,180.60
2022-10-28T19:11:31.702Z,330.25
2022-10-28T19:14:00.843Z,291.67
2022-10-28T19:16:30.299Z,36.70
2022-10-28T19:18:59.625Z,224.50
2022-10-28T19:21:28.020Z,67.95
2022-10-28T19:23:55.941Z,88.25
2022-10-28T19:26:23.537Z,43.33
2022-10-28T19:28:52.198Z,54.63
2022-10-28T19:31:21.732Z,125.18
2022-10-28T19:33:49.427Z,265.98
2022-10-28T19:36:21.107Z,81.75
2022-10-28T19:38:49.826Z,218.25
2022-10-28T19:41:19.590Z,204.77
2022-10-28T19:43:48.647Z,151.52
2022-10-28T19:46:20.799Z,100.55
2022-10-28T19:48:50.559Z,84.72
2022-10-28T19:51:23.539Z,456.27
2022-10-28T19:53:53.411Z,344.45
2022-10-28T19:56:21.522Z,132.30
2022-10-28T19:58:53.474Z,234.10
2022-10-28T20:01:23.360Z,157.27
2022-10-28T20:03:52.405Z,27.80
2022-10-28T20:06:21.930Z,47.40
2022-10-28T20:08:50.007Z,44.72
2022-10-28T20:11:26.006Z,65.63
2022-10-28T20:14:13.942Z,111.47
2022-10-28T20:16:43.130Z,101.63
2022-10-28T20:19:11.095Z,153.10
2022-10-28T20:21:39.627Z,135.77
2022-10-28T20:24:08.235Z,48.92
2022-10-28T20:26:37.221Z,38.65
2022-10-28T20:29:06.863Z,37.13
2022-10-28T20:31:42.113Z,44.58
2022-10-28T20:34:09.639Z,56.67
2022-10-28T20:36:44.398Z,20.35
2022-10-28T20:39:17.042Z,44.97
2022-10-28T20:41:46.452Z,33.08
2022-10-28T20:44:13.856Z,103.03
2022-10-28T20:46:41.962Z,47.30
2022-10-28T20:49:10.077Z,62.10
2022-10-28T20:51:37.781Z,36.97
2022-10-28T20:54:05.822Z,129.65
2022-10-28T20:56:36.388Z,161.48
2022-10-28T20:59:03.894Z,157.00
2022-10-28T21:01:39.005Z,310.17
2022-10-28T21:04:11.650Z,68.28
2022-10-28T21:06:39.708Z,171.18
2022-10-28T21:09:08.007Z,45.22
2022-10-28T21:11:35.920Z,28.23
2022-10-28T21:14:03.420Z,33.60
2022-10-28T21:16:31.002Z,54.65
2022-10-28T21:19:01.758Z,44.40
2022-10-28T21:21:30.195Z,79.38
2022-10-28T21:23:57.784Z,29.45
2022-10-28T21:26:26.795Z,167.73
2022-10-28T21:28:54.998Z,164.18
2022-10-28T21:31:22.575Z,70.28
2022-10-28T21:36:22.655Z,47.50
2022-10-28T21:38:56.092Z,12.77
2022-10-28T21:41:24.305Z,69.72
2022-10-28T21:43:53.395Z,82.55
2022-10-28T21:46:23.698Z,20.20
2022-10-28T21:48:52.317Z,17.52
2022-10-28T21:51:19.519Z,11.48
2022-10-28T21:53:46.864Z,21.02
2022-10-28T21:56:19.051Z,11.27
2022-10-28T21:58:48.523Z,13.00
2022-10-28T22:01:24.696Z,9.35
2022-10-28T22:03:54.972Z,9.13
2022-10-28T22:06:25.537Z,8.27
2022-10-28T22:08:54.192Z,7.90
2022-10-28T22:11:24.313Z,46.70
2022-10-28T22:13:59.759Z,60.92
2022-10-28T22:16:29.675Z,42.75
2022-10-28T22:18:59.234Z,17.00
2022-10-28T22:21:30.213Z,13.48
2022-10-28T22:23:57.840Z,13.98
2022-10-28T22:26:28.538Z,12.90
2022-10-28T22:28:56.231Z,11.23
2022-10-28T22:31:28.873Z,13.82
2022-10-28T22:33:57.377Z,15.35
2022-10-28T22:36:26.513Z,11.30
2022-10-28T22:38:54.481Z,11.70
2022-10-28T22:41:22.683Z,14.25
2022-10-28T22:43:52.686Z,16.02
2022-10-28T22:46:20.910Z,13.07
2022-10-28T22:48:48.916Z,9.80
2022-10-28T22:51:16.898Z,10.23
2022-10-28T22:53:44.594Z,7.80
2022-10-28T22:56:15.923Z,8.73
2022-10-28T22:58:43.552Z,8.37
2022-10-28T23:01:17.319Z,8.65
2022-10-28T23:03:47.426Z,8.23
2022-10-28T23:06:17.405Z,8.07
2022-10-28T23:08:45.141Z,15.02
2022-10-28T23:11:14.808Z,8.98
2022-10-28T23:13:45.423Z,10.90
2022-10-28T23:16:15.128Z,10.40
2022-10-28T23:18:43.335Z,35.97
2022-10-28T23:21:24.483Z,16.80
2022-10-28T23:23:56.476Z,10.65
2022-10-28T23:26:24.967Z,9.25
2022-10-28T23:28:54.674Z,11.60
2022-10-28T23:31:23.183Z,34.65
2022-10-28T23:33:51.064Z,10.07
2022-10-28T23:36:18.614Z,8.25
2022-10-28T23:38:46.723Z,7.75
2022-10-28T23:41:18.878Z,7.68
2022-10-28T23:43:47.322Z,6.93
2022-10-28T23:46:14.615Z,7.50
2022-10-28T23:48:42.765Z,7.78
2022-10-28T23:51:09.927Z,6.53
2022-10-28T23:53:37.393Z,8.05
2022-10-28T23:56:05.764Z,6.82
2022-10-28T23:58:33.010Z,6.68
